sensor_id;sensor_type;location;lat;lon;timestamp;pressure;altitude;pressure_sealevel;temperature;humidity
46534;BME280;32260;52.008;4.752;2023-05-22T00:01:23;101695.75;;;16.86;61.38
46534;BME280;32260;52.008;4.752;2023-05-22T00:03:52;101700.22;;;16.86;61.44
46534;BME280;32260;52.008;4.752;2023-05-22T00:06:19;101704.72;;;16.85;61.55
46534;BME280;32260;52.008;4.752;2023-05-22T00:08:45;101702.03;;;16.85;62.23
46534;BME280;32260;52.008;4.752;2023-05-22T00:11:12;101710.06;;;16.85;62.58
46534;BME280;32260;52.008;4.752;2023-05-22T00:13:38;101710.84;;;16.89;62.21
46534;BME280;32260;52.008;4.752;2023-05-22T00:16:04;101708.97;;;16.91;62.28
46534;BME280;32260;52.008;4.752;2023-05-22T00:18:30;101715.25;;;16.91;61.93
46534;BME280;32260;52.008;4.752;2023-05-22T00:20:57;101729.44;;;16.93;63.05
46534;BME280;32260;52.008;4.752;2023-05-22T00:23:24;101723.88;;;17.00;62.76
46534;BME280;32260;52.008;4.752;2023-05-22T00:25:52;101721.06;;;17.04;63.30
46534;BME280;32260;52.008;4.752;2023-05-22T00:28:18;101719.03;;;17.12;62.54
46534;BME280;32260;52.008;4.752;2023-05-22T00:30:45;101703.72;;;17.16;62.63
46534;BME280;32260;52.008;4.752;2023-05-22T00:33:11;101696.50;;;17.18;62.23
46534;BME280;32260;52.008;4.752;2023-05-22T00:35:37;101692.03;;;17.19;62.28
46534;BME280;32260;52.008;4.752;2023-05-22T00:38:04;101684.91;;;17.18;61.82
46534;BME280;32260;52.008;4.752;2023-05-22T00:40:31;101685.00;;;17.14;61.19
46534;BME280;32260;52.008;4.752;2023-05-22T00:42:57;101678.91;;;17.11;61.38
46534;BME280;32260;52.008;4.752;2023-05-22T00:45:24;101664.78;;;17.06;61.45
46534;BME280;32260;52.008;4.752;2023-05-22T00:47:50;101662.28;;;17.01;61.72
46534;BME280;32260;52.008;4.752;2023-05-22T00:50:17;101662.38;;;16.98;61.65
46534;BME280;32260;52.008;4.752;2023-05-22T00:52:45;101653.63;;;16.93;61.90
46534;BME280;32260;52.008;4.752;2023-05-22T00:55:13;101650.19;;;16.88;61.89
46534;BME280;32260;52.008;4.752;2023-05-22T00:57:39;101636.09;;;16.82;61.88
46534;BME280;32260;52.008;4.752;2023-05-22T01:00:08;101635.31;;;16.79;61.93
46534;BME280;32260;52.008;4.752;2023-05-22T01:02:36;101642.56;;;16.75;62.35
46534;BME280;32260;52.008;4.752;2023-05-22T01:05:04;101631.03;;;16.73;62.69
46534;BME280;32260;52.008;4.752;2023-05-22T01:07:32;101624.03;;;16.69;63.43
46534;BME280;32260;52.008;4.752;2023-05-22T01:09:59;101622.28;;;16.68;63.11
46534;BME280;32260;52.008;4.752;2023-05-22T01:12:33;101634.75;;;16.69;62.85
46534;BME280;32260;52.008;4.752;2023-05-22T01:15:23;101624.88;;;16.71;62.51
46534;BME280;32260;52.008;4.752;2023-05-22T01:20:43;101613.47;;;16.66;63.06
46534;BME280;32260;52.008;4.752;2023-05-22T01:23:42;101613.22;;;16.72;62.69
46534;BME280;32260;52.008;4.752;2023-05-22T01:26:42;101613.13;;;16.75;63.16
46534;BME280;32260;52.008;4.752;2023-05-22T01:30:39;101612.16;;;16.78;63.19
46534;BME280;32260;52.008;4.752;2023-05-22T01:32:21;101614.97;;;16.73;62.90
46534;BME280;32260;52.008;4.752;2023-05-22T01:34:52;101602.44;;;16.75;62.68
46534;BME280;32260;52.008;4.752;2023-05-22T01:37:20;101601.56;;;16.75;63.00
46534;BME280;32260;52.008;4.752;2023-05-22T01:39:47;101598.00;;;16.74;63.60
46534;BME280;32260;52.008;4.752;2023-05-22T01:42:17;101602.44;;;16.75;63.70
46534;BME280;32260;52.008;4.752;2023-05-22T01:44:43;101609.53;;;16.76;63.67
46534;BME280;32260;52.008;4.752;2023-05-22T01:47:09;101613.97;;;16.77;63.45
46534;BME280;32260;52.008;4.752;2023-05-22T01:49:36;101607.72;;;16.77;63.22
46534;BME280;32260;52.008;4.752;2023-05-22T01:52:09;101613.97;;;16.77;63.50
46534;BME280;32260;52.008;4.752;2023-05-22T01:54:48;101598.84;;;16.76;62.90
46534;BME280;32260;52.008;4.752;2023-05-22T02:00:02;101593.78;;;16.67;62.96
46534;BME280;32260;52.008;4.752;2023-05-22T02:02:36;101598.41;;;16.62;63.63
46534;BME280;32260;52.008;4.752;2023-05-22T02:05:04;101598.47;;;16.60;63.36
46534;BME280;32260;52.008;4.752;2023-05-22T02:07:34;101605.66;;;16.58;63.86
46534;BME280;32260;52.008;4.752;2023-05-22T02:10:02;101599.47;;;16.58;64.51
46534;BME280;32260;52.008;4.752;2023-05-22T02:12:33;101593.19;;;16.59;64.27
46534;BME280;32260;52.008;4.752;2023-05-22T02:15:00;101599.34;;;16.61;64.58
46534;BME280;32260;52.008;4.752;2023-05-22T02:17:26;101595.69;;;16.63;64.82
46534;BME280;32260;52.008;4.752;2023-05-22T02:19:53;101615.31;;;16.64;64.43
46534;BME280;32260;52.008;4.752;2023-05-22T02:22:20;101603.69;;;16.65;64.63
46534;BME280;32260;52.008;4.752;2023-05-22T02:24:47;101610.88;;;16.63;64.71
46534;BME280;32260;52.008;4.752;2023-05-22T02:27:13;101597.50;;;16.63;64.76
46534;BME280;32260;52.008;4.752;2023-05-22T02:29:39;101608.19;;;16.63;64.79
46534;BME280;32260;52.008;4.752;2023-05-22T02:32:06;101607.34;;;16.62;64.77
46534;BME280;32260;52.008;4.752;2023-05-22T02:34:32;101604.69;;;16.61;65.79
46534;BME280;32260;52.008;4.752;2023-05-22T02:36:59;101597.63;;;16.60;65.30
46534;BME280;32260;52.008;4.752;2023-05-22T02:39:26;101608.31;;;16.60;65.24
46534;BME280;32260;52.008;4.752;2023-05-22T02:41:52;101602.97;;;16.60;65.78
46534;BME280;32260;52.008;4.752;2023-05-22T02:44:18;101598.56;;;16.57;65.22
46534;BME280;32260;52.008;4.752;2023-05-22T02:46:44;101600.38;;;16.57;64.70
46534;BME280;32260;52.008;4.752;2023-05-22T02:49:12;101590.72;;;16.53;65.20
46534;BME280;32260;52.008;4.752;2023-05-22T02:51:38;101587.13;;;16.54;65.01
46534;BME280;32260;52.008;4.752;2023-05-22T02:54:04;101597.03;;;16.50;65.40
46534;BME280;32260;52.008;4.752;2023-05-22T02:56:31;101585.44;;;16.49;65.09
46534;BME280;32260;52.008;4.752;2023-05-22T02:58:57;101579.28;;;16.47;64.51
46534;BME280;32260;52.008;4.752;2023-05-22T03:01:23;101585.56;;;16.46;65.35
46534;BME280;32260;52.008;4.752;2023-05-22T03:03:51;101578.47;;;16.45;64.73
46534;BME280;32260;52.008;4.752;2023-05-22T03:06:19;101582.06;;;16.44;64.70
46534;BME280;32260;52.008;4.752;2023-05-22T03:08:46;101570.56;;;16.41;64.09
46534;BME280;32260;52.008;4.752;2023-05-22T03:11:13;101575.13;;;16.39;64.43
46534;BME280;32260;52.008;4.752;2023-05-22T03:13:39;101569.78;;;16.37;65.24
46534;BME280;32260;52.008;4.752;2023-05-22T03:16:05;101572.47;;;16.37;64.92
46534;BME280;32260;52.008;4.752;2023-05-22T03:18:32;101579.72;;;16.33;65.03
46534;BME280;32260;52.008;4.752;2023-05-22T03:20:58;101571.75;;;16.32;64.51
46534;BME280;32260;52.008;4.752;2023-05-22T03:23:24;101578.06;;;16.29;65.14
46534;BME280;32260;52.008;4.752;2023-05-22T03:25:50;101582.66;;;16.26;64.89
46534;BME280;32260;52.008;4.752;2023-05-22T03:28:17;101580.88;;;16.25;64.87
46534;BME280;32260;52.008;4.752;2023-05-22T03:30:43;101577.41;;;16.23;64.65
46534;BME280;32260;52.008;4.752;2023-05-22T03:33:09;101579.25;;;16.21;65.55
46534;BME280;32260;52.008;4.752;2023-05-22T03:35:36;101580.16;;;16.20;64.97
46534;BME280;32260;52.008;4.752;2023-05-22T03:38:02;101576.69;;;16.17;64.68
46534;BME280;32260;52.008;4.752;2023-05-22T03:40:28;101577.53;;;16.18;65.01
46534;BME280;32260;52.008;4.752;2023-05-22T03:42:54;101577.59;;;16.16;64.23
46534;BME280;32260;52.008;4.752;2023-05-22T03:45:20;101575.91;;;16.14;65.35
46534;BME280;32260;52.008;4.752;2023-05-22T03:47:46;101568.75;;;16.14;65.52
46534;BME280;32260;52.008;4.752;2023-05-22T03:50:12;101575.94;;;16.12;66.10
46534;BME280;32260;52.008;4.752;2023-05-22T03:52:38;101572.41;;;16.12;65.55
46534;BME280;32260;52.008;4.752;2023-05-22T03:55:05;101564.44;;;16.10;65.39
46534;BME280;32260;52.008;4.752;2023-05-22T03:57:32;101565.34;;;16.09;65.38
46534;BME280;32260;52.008;4.752;2023-05-22T03:59:58;101564.44;;;16.10;64.65
46534;BME280;32260;52.008;4.752;2023-05-22T04:02:31;101575.22;;;16.07;65.29
46534;BME280;32260;52.008;4.752;2023-05-22T04:04:57;101575.31;;;16.04;65.92
46534;BME280;32260;52.008;4.752;2023-05-22T04:07:23;101578.97;;;16.01;65.87
46534;BME280;32260;52.008;4.752;2023-05-22T04:09:49;101580.75;;;16.01;65.35
46534;BME280;32260;52.008;4.752;2023-05-22T04:12:15;101575.50;;;15.98;65.96
46534;BME280;32260;52.008;4.752;2023-05-22T04:14:41;101567.50;;;15.98;65.24
46534;BME280;32260;52.008;4.752;2023-05-22T04:17:07;101571.06;;;15.97;65.53
46534;BME280;32260;52.008;4.752;2023-05-22T04:19:33;101580.78;;;15.99;65.53
46534;BME280;32260;52.008;4.752;2023-05-22T04:21:59;101574.59;;;15.99;65.63
46534;BME280;32260;52.008;4.752;2023-05-22T04:24:25;101576.34;;;16.00;65.88
46534;BME280;32260;52.008;4.752;2023-05-22T04:26:52;101575.50;;;15.98;66.25
46534;BME280;32260;52.008;4.752;2023-05-22T04:29:18;101579.94;;;15.99;65.69
46534;BME280;32260;52.008;4.752;2023-05-22T04:31:46;101578.19;;;15.98;66.14
46534;BME280;32260;52.008;4.752;2023-05-22T04:34:15;101585.22;;;16.00;65.81
46534;BME280;32260;52.008;4.752;2023-05-22T04:36:41;101586.13;;;15.99;66.07
46534;BME280;32260;52.008;4.752;2023-05-22T04:39:09;101583.53;;;15.98;66.49
46534;BME280;32260;52.008;4.752;2023-05-22T04:41:35;101587.03;;;16.00;65.85
46534;BME280;32260;52.008;4.752;2023-05-22T04:44:01;101586.94;;;16.03;66.06
46534;BME280;32260;52.008;4.752;2023-05-22T04:46:28;101591.25;;;16.07;65.96
46534;BME280;32260;52.008;4.752;2023-05-22T04:48:55;101589.34;;;16.11;66.33
46534;BME280;32260;52.008;4.752;2023-05-22T04:51:21;101591.09;;;16.12;67.07
46534;BME280;32260;52.008;4.752;2023-05-22T04:53:47;101596.31;;;16.16;66.23
46534;BME280;32260;52.008;4.752;2023-05-22T04:56:14;101598.88;;;16.20;66.45
46534;BME280;32260;52.008;4.752;2023-05-22T04:58:40;101590.81;;;16.21;66.51
46534;BME280;32260;52.008;4.752;2023-05-22T05:01:06;101605.00;;;16.23;66.70
46534;BME280;32260;52.008;4.752;2023-05-22T05:03:34;101609.56;;;16.20;66.88
46534;BME280;32260;52.008;4.752;2023-05-22T05:06:00;101608.59;;;16.22;66.48
46534;BME280;32260;52.008;4.752;2023-05-22T05:08:26;101605.00;;;16.23;66.87
46534;BME280;32260;52.008;4.752;2023-05-22T05:10:52;101614.72;;;16.26;66.79
46534;BME280;32260;52.008;4.752;2023-05-22T05:13:18;101611.97;;;16.29;66.90
46534;BME280;32260;52.008;4.752;2023-05-22T05:15:44;101610.09;;;16.32;67.21
46534;BME280;32260;52.008;4.752;2023-05-22T05:18:10;101614.47;;;16.35;67.11
46534;BME280;32260;52.008;4.752;2023-05-22T05:20:37;101610.75;;;16.39;67.20
46534;BME280;32260;52.008;4.752;2023-05-22T05:23:03;101614.16;;;16.44;67.23
46534;BME280;32260;52.008;4.752;2023-05-22T05:25:29;101620.94;;;16.55;66.65
46534;BME280;32260;52.008;4.752;2023-05-22T05:27:55;101606.44;;;16.62;66.69
46534;BME280;32260;52.008;4.752;2023-05-22T05:30:22;101606.25;;;16.68;67.28
46534;BME280;32260;52.008;4.752;2023-05-22T05:32:48;101613.03;;;16.78;66.77
46534;BME280;32260;52.008;4.752;2023-05-22T05:35:14;101612.78;;;16.86;66.64
46534;BME280;32260;52.008;4.752;2023-05-22T05:37:40;101615.16;;;16.95;66.29
46534;BME280;32260;52.008;4.752;2023-05-22T05:40:07;101610.38;;;17.05;66.75
46534;BME280;32260;52.008;4.752;2023-05-22T05:42:33;101604.59;;;17.18;66.45
46534;BME280;32260;52.008;4.752;2023-05-22T05:44:59;101605.19;;;17.26;66.27
46534;BME280;32260;52.008;4.752;2023-05-22T05:47:25;101617.47;;;17.32;66.22
46534;BME280;32260;52.008;4.752;2023-05-22T05:49:54;101635.16;;;17.37;66.13
46534;BME280;32260;52.008;4.752;2023-05-22T05:52:20;101614.41;;;17.42;66.12
46534;BME280;32260;52.008;4.752;2023-05-22T05:54:46;101624.00;;;17.50;66.02
46534;BME280;32260;52.008;4.752;2023-05-22T05:57:13;101638.84;;;17.58;65.74
46534;BME280;32260;52.008;4.752;2023-05-22T05:59:39;101632.31;;;17.66;65.77
46534;BME280;32260;52.008;4.752;2023-05-22T06:02:06;101643.63;;;17.74;65.69
46534;BME280;32260;52.008;4.752;2023-05-22T06:04:32;101637.97;;;17.82;65.26
46534;BME280;32260;52.008;4.752;2023-05-22T06:06:58;101637.81;;;17.86;65.19
46534;BME280;32260;52.008;4.752;2023-05-22T06:09:26;101643.88;;;17.91;65.25
46534;BME280;32260;52.008;4.752;2023-05-22T06:11:52;101630.19;;;17.99;64.89
46534;BME280;32260;52.008;4.752;2023-05-22T06:14:18;101640.75;;;18.04;64.92
46534;BME280;32260;52.008;4.752;2023-05-22T06:16:44;101641.56;;;18.06;64.91
46534;BME280;32260;52.008;4.752;2023-05-22T06:19:11;101636.97;;;18.09;64.80
46534;BME280;32260;52.008;4.752;2023-05-22T06:21:37;101640.44;;;18.11;64.79
46534;BME280;32260;52.008;4.752;2023-05-22T06:24:03;101643.09;;;18.13;64.66
46534;BME280;32260;52.008;4.752;2023-05-22T06:26:30;101636.72;;;18.16;64.73
46534;BME280;32260;52.008;4.752;2023-05-22T06:28:56;101637.34;;;18.22;64.92
46534;BME280;32260;52.008;4.752;2023-05-22T06:31:22;101648.59;;;18.32;64.71
46534;BME280;32260;52.008;4.752;2023-05-22T06:33:49;101648.44;;;18.35;64.25
46534;BME280;32260;52.008;4.752;2023-05-22T06:36:16;101651.97;;;18.37;64.30
46534;BME280;32260;52.008;4.752;2023-05-22T06:38:43;101646.47;;;18.40;64.46
46534;BME280;32260;52.008;4.752;2023-05-22T06:41:10;101651.72;;;18.43;64.15
46534;BME280;32260;52.008;4.752;2023-05-22T06:43:39;101650.91;;;18.41;64.15
46534;BME280;32260;52.008;4.752;2023-05-22T06:46:06;101648.09;;;18.45;64.05
46534;BME280;32260;52.008;4.752;2023-05-22T06:48:33;101647.97;;;18.48;64.19
46534;BME280;32260;52.008;4.752;2023-05-22T06:51:00;101647.84;;;18.51;63.98
46534;BME280;32260;52.008;4.752;2023-05-22T06:53:26;101644.00;;;18.58;63.92
46534;BME280;32260;52.008;4.752;2023-05-22T06:55:53;101650.09;;;18.62;63.60
46534;BME280;32260;52.008;4.752;2023-05-22T06:58:19;101648.97;;;18.67;63.69
46534;BME280;32260;52.008;4.752;2023-05-22T07:00:45;101645.22;;;18.71;63.57
46534;BME280;32260;52.008;4.752;2023-05-22T07:03:11;101650.31;;;18.78;63.53
46534;BME280;32260;52.008;4.752;2023-05-22T07:05:37;101644.78;;;18.82;63.41
46534;BME280;32260;52.008;4.752;2023-05-22T07:08:03;101638.28;;;18.88;63.38
46534;BME280;32260;52.008;4.752;2023-05-22T07:10:29;101646.16;;;18.92;63.13
46534;BME280;32260;52.008;4.752;2023-05-22T07:12:55;101652.84;;;19.04;63.16
46534;BME280;32260;52.008;4.752;2023-05-22T07:15:22;101661.31;;;19.16;63.20
46534;BME280;32260;52.008;4.752;2023-05-22T07:17:48;101663.56;;;19.25;62.97
46534;BME280;32260;52.008;4.752;2023-05-22T07:20:14;101664.13;;;19.33;62.54
46534;BME280;32260;52.008;4.752;2023-05-22T07:22:41;101668.28;;;19.40;62.65
46534;BME280;32260;52.008;4.752;2023-05-22T07:25:07;101669.63;;;19.51;62.57
46534;BME280;32260;52.008;4.752;2023-05-22T07:27:33;101677.28;;;19.60;62.36
46534;BME280;32260;52.008;4.752;2023-05-22T07:29:59;101670.75;;;19.66;62.00
46534;BME280;32260;52.008;4.752;2023-05-22T07:32:25;101671.56;;;19.68;62.13
46534;BME280;32260;52.008;4.752;2023-05-22T07:34:51;101680.22;;;19.75;62.13
46534;BME280;32260;52.008;4.752;2023-05-22T07:37:17;101678.09;;;19.83;62.01
46534;BME280;32260;52.008;4.752;2023-05-22T07:39:43;101673.44;;;19.86;61.71
46534;BME280;32260;52.008;4.752;2023-05-22T07:42:11;101674.97;;;19.92;61.90
46534;BME280;32260;52.008;4.752;2023-05-22T07:44:39;101671.06;;;19.99;61.54
46534;BME280;32260;52.008;4.752;2023-05-22T07:47:05;101665.38;;;20.06;61.59
46534;BME280;32260;52.008;4.752;2023-05-22T07:49:32;101669.38;;;20.16;61.46
46534;BME280;32260;52.008;4.752;2023-05-22T07:51:58;101671.69;;;20.24;61.02
46534;BME280;32260;52.008;4.752;2023-05-22T07:54:24;101670.38;;;20.32;61.13
46534;BME280;32260;52.008;4.752;2023-05-22T07:56:51;101680.72;;;20.42;61.15
46534;BME280;32260;52.008;4.752;2023-05-22T07:59:17;101677.75;;;20.48;60.91
46534;BME280;32260;52.008;4.752;2023-05-22T08:01:45;101679.13;;;20.57;60.79
46534;BME280;32260;52.008;4.752;2023-05-22T08:04:11;101685.06;;;20.63;60.56
46534;BME280;32260;52.008;4.752;2023-05-22T08:06:37;101673.88;;;20.73;60.50
46534;BME280;32260;52.008;4.752;2023-05-22T08:09:05;101676.19;;;20.80;60.48
46534;BME280;32260;52.008;4.752;2023-05-22T08:11:31;101675.16;;;20.83;60.26
46534;BME280;32260;52.008;4.752;2023-05-22T08:13:57;101669.63;;;20.86;60.14
46534;BME280;32260;52.008;4.752;2023-05-22T08:16:23;101675.78;;;20.88;60.20
46534;BME280;32260;52.008;4.752;2023-05-22T08:18:49;101676.75;;;20.87;59.84
46534;BME280;32260;52.008;4.752;2023-05-22T08:21:16;101682.00;;;20.90;60.13
46534;BME280;32260;52.008;4.752;2023-05-22T08:23:42;101690.78;;;20.94;60.03
46534;BME280;32260;52.008;4.752;2023-05-22T08:26:08;101679.72;;;21.00;59.98
46534;BME280;32260;52.008;4.752;2023-05-22T08:28:34;101676.94;;;21.01;59.71
46534;BME280;32260;52.008;4.752;2023-05-22T08:31:00;101667.81;;;21.04;59.71
46534;BME280;32260;52.008;4.752;2023-05-22T08:33:27;101672.34;;;21.04;59.78
46534;BME280;32260;52.008;4.752;2023-05-22T08:35:53;101671.16;;;21.09;59.67
46534;BME280;32260;52.008;4.752;2023-05-22T08:38:19;101661.88;;;21.15;59.46
46534;BME280;32260;52.008;4.752;2023-05-22T08:40:47;101660.84;;;21.17;59.45
46534;BME280;32260;52.008;4.752;2023-05-22T08:43:14;101658.69;;;21.24;59.79
46534;BME280;32260;52.008;4.752;2023-05-22T08:45:40;101662.72;;;21.33;59.48
46534;BME280;32260;52.008;4.752;2023-05-22T08:48:11;101653.38;;;21.40;59.32
46534;BME280;32260;52.008;4.752;2023-05-22T08:50:41;101657.41;;;21.49;59.07
46534;BME280;32260;52.008;4.752;2023-05-22T08:53:11;101656.97;;;21.58;59.25
46534;BME280;32260;52.008;4.752;2023-05-22T08:55:39;101645.66;;;21.68;58.97
46534;BME280;32260;52.008;4.752;2023-05-22T08:58:05;101648.75;;;21.77;58.73
46534;BME280;32260;52.008;4.752;2023-05-22T09:00:33;101648.16;;;21.88;58.75
46534;BME280;32260;52.008;4.752;2023-05-22T09:02:59;101651.13;;;22.00;58.63
46534;BME280;32260;52.008;4.752;2023-05-22T09:05:25;101655.91;;;22.10;58.52
46534;BME280;32260;52.008;4.752;2023-05-22T09:07:53;101646.44;;;22.19;58.29
46534;BME280;32260;52.008;4.752;2023-05-22T09:10:19;101644.09;;;22.29;58.45
46534;BME280;32260;52.008;4.752;2023-05-22T09:13:06;101644.91;;;22.47;58.23
46534;BME280;32260;52.008;4.752;2023-05-22T09:15:34;101639.22;;;22.52;58.23
46534;BME280;32260;52.008;4.752;2023-05-22T09:18:02;101634.94;;;22.64;57.92
46534;BME280;32260;52.008;4.752;2023-05-22T09:20:34;101637.88;;;22.75;57.82
46534;BME280;32260;52.008;4.752;2023-05-22T09:23:00;101633.88;;;22.82;57.70
46534;BME280;32260;52.008;4.752;2023-05-22T09:25:27;101621.75;;;22.89;57.49
46534;BME280;32260;52.008;4.752;2023-05-22T09:27:53;101634.88;;;22.96;57.36
46534;BME280;32260;52.008;4.752;2023-05-22T09:30:20;101635.28;;;23.04;57.49
46534;BME280;32260;52.008;4.752;2023-05-22T09:32:48;101629.31;;;23.13;57.23
46534;BME280;32260;52.008;4.752;2023-05-22T09:35:14;101638.06;;;23.18;57.01
46534;BME280;32260;52.008;4.752;2023-05-22T09:37:41;101640.38;;;23.24;57.01
46534;BME280;32260;52.008;4.752;2023-05-22T09:40:10;101648.88;;;23.33;56.88
46534;BME280;32260;52.008;4.752;2023-05-22T09:42:36;101647.66;;;23.38;56.81
46534;BME280;32260;52.008;4.752;2023-05-22T09:45:04;101647.28;;;23.45;56.58
46534;BME280;32260;52.008;4.752;2023-05-22T09:47:31;101640.41;;;23.53;56.64
46534;BME280;32260;52.008;4.752;2023-05-22T09:50:00;101635.31;;;23.63;56.55
46534;BME280;32260;52.008;4.752;2023-05-22T09:52:33;101636.47;;;23.73;56.37
46534;BME280;32260;52.008;4.752;2023-05-22T09:55:02;101636.19;;;23.78;56.39
46534;BME280;32260;52.008;4.752;2023-05-22T09:57:32;101638.28;;;23.87;56.15
46534;BME280;32260;52.008;4.752;2023-05-22T10:00:03;101636.09;;;23.94;55.47
46534;BME280;32260;52.008;4.752;2023-05-22T10:02:37;101643.84;;;24.00;55.27
46534;BME280;32260;52.008;4.752;2023-05-22T10:05:06;101635.38;;;24.05;55.61
46534;BME280;32260;52.008;4.752;2023-05-22T10:07:36;101631.13;;;24.15;55.43
46534;BME280;32260;52.008;4.752;2023-05-22T10:10:07;101630.34;;;24.28;55.02
46534;BME280;32260;52.008;4.752;2023-05-22T10:12:40;101628.75;;;24.38;54.89
46534;BME280;32260;52.008;4.752;2023-05-22T10:15:09;101622.25;;;24.41;54.57
46534;BME280;32260;52.008;4.752;2023-05-22T10:17:36;101631.91;;;24.45;54.17
46534;BME280;32260;52.008;4.752;2023-05-22T10:20:03;101629.97;;;24.47;54.44
46534;BME280;32260;52.008;4.752;2023-05-22T10:22:34;101622.22;;;24.55;54.54
46534;BME280;32260;52.008;4.752;2023-05-22T10:25:02;101622.88;;;24.59;54.33
46534;BME280;32260;52.008;4.752;2023-05-22T10:27:28;101625.09;;;24.66;54.05
46534;BME280;32260;52.008;4.752;2023-05-22T10:35:56;101620.09;;;25.13;53.29
46534;BME280;32260;52.008;4.752;2023-05-22T10:39:33;101616.75;;;25.23;53.09
46534;BME280;32260;52.008;4.752;2023-05-22T10:41:16;101612.66;;;25.43;52.20
46534;BME280;32260;52.008;4.752;2023-05-22T10:43:42;101609.28;;;25.39;52.44
46534;BME280;32260;52.008;4.752;2023-05-22T10:46:11;101604.09;;;25.49;52.64
46534;BME280;32260;52.008;4.752;2023-05-22T10:48:38;101606.78;;;25.62;52.60
46534;BME280;32260;52.008;4.752;2023-05-22T10:51:06;101596.78;;;25.75;52.45
46534;BME280;32260;52.008;4.752;2023-05-22T10:53:34;101608.25;;;25.92;51.67
46534;BME280;32260;52.008;4.752;2023-05-22T10:59:03;101594.03;;;26.38;50.36
46534;BME280;32260;52.008;4.752;2023-05-22T11:01:30;101604.34;;;26.33;50.50
46534;BME280;32260;52.008;4.752;2023-05-22T11:09:34;101597.16;;;26.08;51.31
46534;BME280;32260;52.008;4.752;2023-05-22T11:12:24;101594.00;;;26.14;51.63
46534;BME280;32260;52.008;4.752;2023-05-22T11:17:42;101594.63;;;26.18;50.59
46534;BME280;32260;52.008;4.752;2023-05-22T11:22:58;101593.66;;;26.19;51.21
46534;BME280;32260;52.008;4.752;2023-05-22T11:25:26;101599.09;;;26.19;50.77
46534;BME280;32260;52.008;4.752;2023-05-22T11:27:53;101601.03;;;26.16;50.50
46534;BME280;32260;52.008;4.752;2023-05-22T11:30:23;101604.72;;;26.15;50.41
46534;BME280;32260;52.008;4.752;2023-05-22T11:32:50;101603.25;;;26.11;50.06
46534;BME280;32260;52.008;4.752;2023-05-22T11:35:20;101583.91;;;26.16;50.58
46534;BME280;32260;52.008;4.752;2023-05-22T11:37:47;101592.97;;;26.28;50.43
46534;BME280;32260;52.008;4.752;2023-05-22T11:40:16;101596.19;;;26.33;50.17
46534;BME280;32260;52.008;4.752;2023-05-22T11:42:43;101590.53;;;26.36;50.00
46534;BME280;32260;52.008;4.752;2023-05-22T11:45:09;101586.38;;;26.43;49.82
46534;BME280;32260;52.008;4.752;2023-05-22T11:47:36;101584.56;;;26.55;49.59
46534;BME280;32260;52.008;4.752;2023-05-22T11:50:03;101584.72;;;26.65;48.86
46534;BME280;32260;52.008;4.752;2023-05-22T11:52:33;101581.09;;;26.77;49.40
46534;BME280;32260;52.008;4.752;2023-05-22T11:55:00;101583.13;;;26.87;48.97
46534;BME280;32260;52.008;4.752;2023-05-22T11:57:26;101582.03;;;26.89;47.62
46534;BME280;32260;52.008;4.752;2023-05-22T11:59:53;101581.38;;;26.86;47.63
46534;BME280;32260;52.008;4.752;2023-05-22T12:02:19;101580.63;;;26.84;48.14
46534;BME280;32260;52.008;4.752;2023-05-22T12:04:45;101584.25;;;26.71;48.21
46534;BME280;32260;52.008;4.752;2023-05-22T12:07:11;101596.16;;;26.46;47.82
46534;BME280;32260;52.008;4.752;2023-05-22T12:09:40;101594.13;;;26.12;47.70
46534;BME280;32260;52.008;4.752;2023-05-22T12:12:10;101606.06;;;26.10;48.41
46534;BME280;32260;52.008;4.752;2023-05-22T12:14:37;101607.34;;;26.04;49.16
46534;BME280;32260;52.008;4.752;2023-05-22T12:17:03;101601.00;;;25.92;49.07
46534;BME280;32260;52.008;4.752;2023-05-22T12:19:29;101600.34;;;25.89;49.00
46534;BME280;32260;52.008;4.752;2023-05-22T12:21:55;101606.94;;;26.10;49.36
46534;BME280;32260;52.008;4.752;2023-05-22T12:24:22;101597.94;;;26.34;48.35
46534;BME280;32260;52.008;4.752;2023-05-22T12:26:51;101607.41;;;26.53;48.37
46534;BME280;32260;52.008;4.752;2023-05-22T12:29:20;101604.41;;;26.69;47.90
46534;BME280;32260;52.008;4.752;2023-05-22T12:31:46;101594.56;;;26.79;47.91
46534;BME280;32260;52.008;4.752;2023-05-22T12:34:15;101592.50;;;26.94;47.12
46534;BME280;32260;52.008;4.752;2023-05-22T12:36:44;101593.78;;;27.01;47.02
46534;BME280;32260;52.008;4.752;2023-05-22T12:39:16;101593.00;;;26.99;46.10
46534;BME280;32260;52.008;4.752;2023-05-22T12:41:44;101597.84;;;26.95;45.98
46534;BME280;32260;52.008;4.752;2023-05-22T12:44:10;101600.38;;;26.74;46.07
46534;BME280;32260;52.008;4.752;2023-05-22T12:46:37;101603.72;;;26.54;46.58
46534;BME280;32260;52.008;4.752;2023-05-22T12:49:03;101608.94;;;26.57;47.68
46534;BME280;32260;52.008;4.752;2023-05-22T12:51:31;101610.13;;;26.53;46.85
46534;BME280;32260;52.008;4.752;2023-05-22T12:53:57;101613.09;;;26.50;46.39
46534;BME280;32260;52.008;4.752;2023-05-22T12:56:24;101629.41;;;26.50;46.36
46534;BME280;32260;52.008;4.752;2023-05-22T12:58:50;101632.31;;;26.46;45.79
46534;BME280;32260;52.008;4.752;2023-05-22T13:01:17;101623.03;;;26.62;46.78
46534;BME280;32260;52.008;4.752;2023-05-22T13:03:44;101625.03;;;26.71;46.53
46534;BME280;32260;52.008;4.752;2023-05-22T13:06:10;101623.97;;;26.74;45.65
46534;BME280;32260;52.008;4.752;2023-05-22T13:08:38;101622.56;;;26.68;45.14
46534;BME280;32260;52.008;4.752;2023-05-22T13:11:04;101626.78;;;26.72;45.34
46534;BME280;32260;52.008;4.752;2023-05-22T13:13:30;101628.41;;;26.51;44.84
46534;BME280;32260;52.008;4.752;2023-05-22T13:15:59;101626.94;;;26.58;45.32
46534;BME280;32260;52.008;4.752;2023-05-22T13:18:26;101625.28;;;26.68;45.50